createdAt,value
2023-03-07T00:02:44.942Z,34.50
2023-03-07T00:07:47.901Z,50.20
2023-03-07T00:12:51.313Z,39.60
2023-03-07T00:17:54.216Z,33.90
2023-03-07T00:22:57.015Z,33.40
2023-03-07T00:27:59.917Z,30.10
2023-03-07T00:33:02.745Z,44.60
2023-03-07T00:38:05.620Z,31.60
2023-03-07T00:43:08.528Z,28.70
2023-03-07T00:48:11.368Z,24.00
2023-03-07T00:53:14.344Z,22.60
2023-03-07T01:03:20.705Z,46.20
2023-03-07T01:08:24.350Z,38.10
2023-03-07T01:13:28.510Z,21.40
2023-03-07T01:18:31.925Z,22.80
2023-03-07T01:28:37.637Z,35.60
2023-03-07T01:33:41.048Z,25.00
2023-03-07T01:38:43.858Z,23.20
2023-03-07T01:43:46.854Z,20.90
2023-03-07T01:54:00.854Z,22.50
2023-03-07T01:59:05.272Z,24.30
2023-03-07T02:04:21.430Z,24.00
2023-03-07T02:09:26.096Z,37.00
2023-03-07T02:15:33.400Z,25.40
2023-03-07T02:21:09.467Z,26.00
2023-03-07T02:26:25.355Z,23.00
2023-03-07T02:31:28.572Z,23.50
2023-03-07T02:36:35.450Z,40.20
2023-03-07T02:41:40.505Z,30.70
2023-03-07T02:46:43.309Z,27.80
2023-03-07T02:51:46.053Z,25.70
2023-03-07T02:56:48.717Z,24.10
2023-03-07T03:01:51.681Z,38.90
2023-03-07T03:06:55.170Z,31.90
2023-03-07T03:11:58.147Z,25.40
2023-03-07T03:22:03.716Z,22.80
2023-03-07T03:32:09.354Z,33.20
2023-03-07T03:37:12.100Z,24.30
2023-03-07T03:42:14.795Z,24.70
2023-03-07T03:47:17.495Z,25.90
2023-03-07T03:52:21.060Z,24.00
2023-03-07T03:57:24.276Z,33.20
2023-03-07T04:02:30.772Z,31.00
2023-03-07T04:07:33.841Z,25.10
2023-03-07T04:12:37.152Z,24.20
2023-03-07T04:17:39.814Z,20.90
2023-03-07T04:22:42.481Z,30.90
2023-03-07T04:27:45.179Z,40.80
2023-03-07T04:32:47.974Z,25.80
2023-03-07T04:37:50.804Z,24.00
2023-03-07T04:47:56.353Z,17.80
2023-03-07T04:52:59.179Z,18.10
2023-03-07T04:58:01.855Z,23.90
2023-03-07T05:03:04.562Z,35.70
2023-03-07T05:08:08.604Z,47.50
2023-03-07T05:13:11.722Z,43.60
2023-03-07T05:18:14.516Z,30.60
2023-03-07T05:23:18.824Z,23.40
2023-03-07T05:28:21.746Z,21.10
2023-03-07T05:33:24.494Z,18.90
2023-03-07T05:38:27.185Z,18.30
2023-03-07T05:43:29.949Z,16.60
2023-03-07T05:48:32.643Z,12.10
2023-03-07T05:53:35.449Z,33.20
2023-03-07T05:58:38.531Z,33.20
2023-03-07T06:08:43.894Z,22.00
2023-03-07T06:13:46.602Z,21.90
2023-03-07T06:18:49.359Z,22.60
2023-03-07T06:23:52.110Z,20.40
2023-03-07T06:28:58.087Z,18.70
2023-03-07T06:34:00.938Z,26.10
2023-03-07T06:39:03.656Z,37.10
2023-03-07T06:44:06.423Z,22.50
2023-03-07T06:49:09.384Z,24.40
2023-03-07T06:54:12.692Z,22.10
2023-03-07T06:59:16.037Z,14.40
2023-03-07T07:09:21.667Z,27.50
2023-03-07T07:14:25.004Z,24.20
2023-03-07T07:19:28.730Z,19.60
2023-03-07T07:24:31.837Z,20.50
2023-03-07T07:29:36.483Z,14.30
2023-03-07T07:34:39.694Z,18.10
2023-03-07T07:39:44.241Z,22.30
2023-03-07T07:44:48.330Z,22.10
2023-03-07T07:49:51.129Z,18.60
2023-03-07T07:54:53.933Z,16.50
2023-03-07T07:59:56.699Z,15.60
2023-03-07T08:04:59.450Z,20.80
2023-03-07T08:10:02.481Z,19.20
2023-03-07T08:15:05.738Z,15.80
2023-03-07T08:25:20.461Z,14.80
2023-03-07T08:30:25.665Z,17.70
2023-03-07T08:35:29.006Z,17.20
2023-03-07T08:45:34.592Z,15.80
2023-03-07T08:50:39.223Z,15.40
2023-03-07T08:55:43.459Z,16.20
2023-03-07T09:00:47.321Z,11.00
2023-03-07T09:05:50.320Z,14.90
2023-03-07T09:10:53.632Z,14.90
2023-03-07T09:15:56.675Z,12.70
2023-03-07T09:21:06.824Z,12.80
2023-03-07T09:26:10.816Z,24.90
2023-03-07T09:31:15.578Z,11.90
2023-03-07T09:36:19.903Z,14.20
2023-03-07T09:41:44.574Z,13.00
2023-03-07T09:47:14.587Z,12.40
2023-03-07T09:52:24.739Z,12.50
2023-03-07T09:57:41.076Z,13.10
2023-03-07T10:02:50.080Z,13.00
2023-03-07T10:07:54.698Z,12.50
2023-03-07T10:12:57.428Z,12.70
2023-03-07T10:18:09.046Z,14.10
2023-03-07T10:23:23.307Z,11.60
2023-03-07T10:28:31.699Z,14.20
2023-03-07T10:33:35.187Z,14.70
2023-03-07T10:38:45.727Z,15.10
2023-03-07T10:43:52.628Z,16.40
2023-03-07T10:49:01.898Z,15.50
2023-03-07T10:54:08.847Z,15.80
2023-03-07T10:59:12.079Z,16.70
2023-03-07T11:04:24.009Z,16.30
2023-03-07T11:09:35.009Z,15.90
2023-03-07T11:15:08.892Z,17.40
2023-03-07T11:20:22.640Z,17.50
2023-03-07T11:25:26.685Z,15.70
2023-03-07T11:30:48.150Z,17.10
2023-03-07T11:36:08.569Z,19.20
2023-03-07T11:41:30.868Z,19.10
2023-03-07T11:46:36.593Z,20.40
2023-03-07T11:51:58.201Z,20.30
2023-03-07T11:57:17.739Z,19.10
2023-03-07T12:02:35.516Z,19.50
2023-03-07T12:07:57.314Z,21.50
2023-03-07T12:13:44.893Z,19.90
2023-03-07T12:18:53.630Z,22.30
2023-03-07T12:24:06.707Z,22.50
2023-03-07T12:29:32.601Z,19.60
2023-03-07T12:34:48.326Z,21.40
2023-03-07T12:39:57.484Z,21.40
2023-03-07T12:45:53.932Z,22.80
2023-03-07T12:51:03.030Z,19.20
2023-03-07T12:56:16.070Z,23.80
2023-03-07T13:01:45.987Z,26.30
2023-03-07T13:06:49.921Z,24.30
2023-03-07T13:12:22.579Z,29.80
2023-03-07T13:17:31.407Z,29.60
2023-03-07T13:22:37.154Z,28.30
2023-03-07T13:28:01.806Z,27.20
2023-03-07T13:33:28.717Z,25.60
2023-03-07T13:38:41.497Z,30.60
2023-03-07T13:43:45.242Z,24.50
2023-03-07T13:48:48.830Z,31.30
2023-03-07T13:54:04.118Z,32.30
2023-03-07T13:59:09.876Z,29.20
2023-03-07T14:04:29.657Z,31.50
2023-03-07T14:09:55.725Z,32.60
2023-03-07T14:15:05.499Z,32.70
2023-03-07T14:20:44.623Z,34.40
2023-03-07T14:25:52.366Z,34.10
2023-03-07T14:31:01.766Z,31.50
2023-03-07T14:36:18.476Z,33.30
2023-03-07T14:41:36.681Z,28.40
2023-03-07T14:46:42.400Z,29.20
2023-03-07T14:51:45.201Z,26.70
2023-03-07T14:56:52.666Z,29.30
2023-03-07T15:01:56.944Z,29.50
2023-03-07T15:07:02.276Z,33.20
2023-03-07T15:12:15.814Z,31.70
2023-03-07T15:17:20.611Z,26.40
2023-03-07T15:22:30.708Z,29.60
2023-03-07T15:27:34.311Z,19.70
2023-03-07T15:32:38.601Z,30.80
2023-03-07T15:37:55.170Z,27.90
2023-03-07T15:43:04.135Z,24.20
2023-03-07T15:48:27.297Z,27.20
2023-03-07T15:53:37.468Z,26.20
2023-03-07T15:58:43.969Z,22.80
2023-03-07T16:03:59.265Z,25.30
2023-03-07T16:09:02.256Z,23.40
2023-03-07T16:14:05.162Z,22.50
2023-03-07T16:19:09.725Z,28.60
2023-03-07T16:24:12.424Z,23.50
2023-03-07T16:29:22.169Z,22.50
2023-03-07T16:34:24.842Z,29.00
2023-03-07T16:39:27.509Z,36.70
2023-03-07T16:44:30.582Z,27.20
2023-03-07T16:49:33.250Z,30.30
2023-03-07T16:54:35.964Z,36.70
2023-03-07T16:59:47.950Z,28.20
2023-03-07T17:04:50.638Z,25.10
2023-03-07T17:09:54.825Z,26.60
2023-03-07T17:14:59.277Z,26.10
2023-03-07T17:20:02.995Z,17.70
2023-03-07T17:25:06.420Z,28.20
2023-03-07T17:30:17.712Z,25.80
2023-03-07T17:35:21.558Z,24.50
2023-03-07T17:40:24.389Z,24.20
2023-03-07T17:45:27.427Z,27.70
2023-03-07T17:50:30.093Z,23.40
2023-03-07T17:55:33.119Z,22.30
2023-03-07T18:00:36.968Z,16.00
2023-03-07T18:05:40.366Z,17.50
2023-03-07T18:10:43.684Z,17.30
2023-03-07T18:26:02.090Z,17.90
2023-03-07T18:31:10.522Z,14.50
2023-03-07T18:36:15.632Z,20.50
2023-03-07T18:41:20.870Z,19.40
2023-03-07T18:46:26.295Z,10.70
2023-03-07T18:51:29.124Z,13.00
2023-03-07T18:56:31.822Z,8.00
2023-03-07T19:01:35.528Z,10.20
2023-03-07T19:06:40.943Z,8.30
2023-03-07T19:11:43.703Z,5.80
2023-03-07T19:16:46.487Z,8.50
2023-03-07T19:21:49.314Z,4.70
2023-03-07T19:26:52.126Z,4.30
2023-03-07T19:31:54.913Z,4.20
2023-03-07T19:36:57.615Z,4.10
2023-03-07T19:42:00.309Z,3.00
2023-03-07T19:47:03.106Z,2.70
2023-03-07T19:52:06.022Z,4.50
2023-03-07T19:57:09.439Z,5.60
2023-03-07T20:02:15.023Z,5.30
2023-03-07T20:07:17.781Z,7.20
2023-03-07T20:12:20.551Z,6.80
2023-03-07T20:17:24.147Z,8.70
2023-03-07T20:22:28.553Z,12.60
2023-03-07T20:27:31.256Z,15.20
2023-03-07T20:32:34.015Z,10.50
2023-03-07T20:37:36.808Z,10.80
2023-03-07T20:42:39.578Z,10.80
2023-03-07T20:47:42.360Z,6.10
2023-03-07T20:52:45.078Z,3.60
2023-03-07T20:57:48.579Z,4.50
2023-03-07T21:03:03.786Z,4.00
2023-03-07T21:08:10.083Z,5.90
2023-03-07T21:13:13.272Z,4.10
2023-03-07T21:18:16.066Z,5.20
2023-03-07T21:23:19.353Z,5.30
2023-03-07T21:33:24.671Z,6.60
2023-03-07T21:38:28.204Z,5.40
2023-03-07T21:43:32.237Z,5.90
2023-03-07T21:48:35.124Z,5.80
2023-03-07T21:53:38.031Z,5.30
2023-03-07T21:58:41.029Z,6.70
2023-03-07T22:03:44.239Z,7.80
2023-03-07T22:13:50.172Z,5.30
2023-03-07T22:23:58.286Z,8.20
2023-03-07T22:29:01.198Z,9.60
2023-03-07T22:34:03.933Z,7.10
2023-03-07T22:39:09.576Z,6.10
2023-03-07T22:44:12.484Z,7.60
2023-03-07T22:49:15.190Z,6.10
2023-03-07T22:54:17.931Z,9.30
2023-03-07T22:59:20.922Z,8.30
2023-03-07T23:04:23.702Z,11.50
2023-03-07T23:09:26.469Z,6.70
2023-03-07T23:14:29.265Z,4.80
2023-03-07T23:19:32.058Z,10.20
2023-03-07T23:24:36.125Z,8.50
2023-03-07T23:29:38.787Z,8.80
2023-03-07T23:34:41.465Z,6.00
2023-03-07T23:39:44.552Z,8.80
2023-03-07T23:44:50.474Z,7.80
2023-03-07T23:49:53.204Z,9.50
2023-03-07T23:54:55.836Z,8.80
2023-03-07T23:59:58.596Z,8.50
